Time;durP1;ratioP1;P1;durP2;ratioP2;P2;SDS_P1;SDS_P2;PMS_P1;PMS_P2;Temp;Humidity;BMP_temperature;BMP_pressure;BME280_temperature;BME280_humidity;BME280_pressure;Samples;Min_cycle;Max_cycle;Signal;HPM_P1;HPM_P2
2022/02/16 00:02:24;;;;;;;46.77;30.60;;;5.60;73.60;;;;;;5135287;27;20052;-72
2022/02/16 00:04:50;;;;;;;48.77;32.77;;;5.60;73.50;;;;;;5134223;27;20445;-72
2022/02/16 00:07:15;;;;;;;45.73;31.63;;;5.60;73.60;;;;;;5131554;27;20135;-72
2022/02/16 00:09:41;;;;;;;41.30;29.30;;;5.50;73.60;;;;;;5134489;27;20011;-72
2022/02/16 00:12:07;;;;;;;52.37;29.57;;;5.50;73.80;;;;;;5129310;27;20098;-72
2022/02/16 00:14:33;;;;;;;49.20;30.97;;;5.60;73.80;;;;;;5134691;27;20031;-72
2022/02/16 00:16:59;;;;;;;43.73;30.13;;;5.60;73.80;;;;;;5134142;27;20031;-72
2022/02/16 00:19:25;;;;;;;43.80;30.60;;;5.60;73.80;;;;;;5133775;27;20459;-72
2022/02/16 00:21:51;;;;;;;41.53;28.57;;;5.50;73.80;;;;;;5141040;27;20077;-72
2022/02/16 00:24:18;;;;;;;41.73;28.63;;;5.60;74.10;;;;;;5130304;27;20020;-72
2022/02/16 00:26:44;;;;;;;39.20;27.10;;;5.50;74.00;;;;;;5125307;27;20653;-72
2022/02/16 00:29:11;;;;;;;47.97;30.07;;;5.50;74.00;;;;;;5135503;27;20054;-73
2022/02/16 00:31:40;;;;;;;43.33;29.63;;;5.50;74.10;;;;;;5130819;27;20482;-73
2022/02/16 00:34:07;;;;;;;41.27;30.50;;;5.60;74.10;;;;;;5123215;27;20037;-73
2022/02/16 00:36:33;;;;;;;41.17;28.10;;;5.60;74.00;;;;;;5131178;27;20689;-72
2022/02/16 00:38:59;;;;;;;38.13;27.30;;;5.60;74.00;;;;;;5129615;27;20558;-73
2022/02/16 00:41:26;;;;;;;41.73;28.57;;;5.60;74.00;;;;;;5133620;27;20109;-72
2022/02/16 00:43:51;;;;;;;37.97;27.30;;;5.70;73.90;;;;;;5132891;27;20018;-72
2022/02/16 00:46:17;;;;;;;38.40;27.07;;;5.60;73.90;;;;;;5130784;27;20041;-72
2022/02/16 00:48:43;;;;;;;37.57;25.77;;;5.60;73.90;;;;;;5138108;27;20023;-72
2022/02/16 00:51:09;;;;;;;40.63;28.30;;;5.60;74.00;;;;;;5132865;27;20495;-72
2022/02/16 00:53:35;;;;;;;40.73;28.93;;;5.60;73.90;;;;;;5132669;27;20052;-72
2022/02/16 00:56:00;;;;;;;40.33;28.47;;;5.60;73.90;;;;;;5130047;28;20027;-72
2022/02/16 00:58:26;;;;;;;42.83;28.83;;;5.60;73.80;;;;;;5125669;27;20027;-72
2022/02/16 01:00:52;;;;;;;44.80;31.07;;;5.60;73.80;;;;;;5141359;27;20027;-73
2022/02/16 01:03:18;;;;;;;42.40;29.80;;;5.60;73.90;;;;;;5131496;27;20019;-73
2022/02/16 01:05:45;;;;;;;46.47;30.70;;;5.60;74.00;;;;;;5151486;27;20018;-72
2022/02/16 01:08:12;;;;;;;44.73;30.57;;;5.60;74.10;;;;;;5136329;27;20367;-73
2022/02/16 01:10:39;;;;;;;43.67;30.20;;;5.50;74.00;;;;;;5144000;27;20030;-72
2022/02/16 01:13:05;;;;;;;50.00;32.43;;;5.50;74.00;;;;;;5132312;27;20028;-72
2022/02/16 01:15:31;;;;;;;44.33;29.57;;;5.50;74.00;;;;;;5141869;27;20027;-72
2022/02/16 01:17:57;;;;;;;43.70;29.77;;;5.50;74.10;;;;;;5135905;27;20027;-72
2022/02/16 01:20:23;;;;;;;39.37;28.10;;;5.60;74.20;;;;;;5133810;27;20034;-73
2022/02/16 01:22:49;;;;;;;39.17;27.73;;;5.60;74.20;;;;;;5135716;27;20023;-72
2022/02/16 01:25:15;;;;;;;31.90;23.73;;;5.60;74.00;;;;;;5130736;27;20024;-72
2022/02/16 01:27:41;;;;;;;37.53;25.83;;;5.60;74.20;;;;;;5133898;27;20019;-72
2022/02/16 01:30:07;;;;;;;42.57;27.93;;;5.60;74.10;;;;;;5134288;27;20351;-72
2022/02/16 01:32:33;;;;;;;37.40;26.90;;;5.60;73.90;;;;;;5134372;27;20531;-72
2022/02/16 01:34:59;;;;;;;34.23;25.17;;;5.60;74.00;;;;;;5135510;27;20087;-72
2022/02/16 01:37:24;;;;;;;34.20;24.50;;;5.60;73.90;;;;;;5133756;27;20080;-72
2022/02/16 01:39:50;;;;;;;36.20;26.13;;;5.60;73.90;;;;;;5132922;27;20023;-73
2022/02/16 01:42:18;;;;;;;42.33;28.97;;;5.60;73.80;;;;;;5133883;27;20062;-72
2022/02/16 01:44:45;;;;;;;33.27;25.10;;;5.60;73.70;;;;;;5138998;27;20031;-72
2022/02/16 01:47:11;;;;;;;34.10;23.80;;;5.70;73.70;;;;;;5135535;27;20043;-72
2022/02/16 01:49:37;;;;;;;33.20;23.33;;;5.70;73.60;;;;;;5138054;27;20038;-73
2022/02/16 01:52:05;;;;;;;32.33;23.20;;;5.60;73.60;;;;;;5133535;27;20051;-72
2022/02/16 01:54:31;;;;;;;32.53;23.97;;;5.60;73.90;;;;;;5133739;27;20046;-72
2022/02/16 01:56:57;;;;;;;30.50;21.73;;;5.60;73.70;;;;;;5134024;27;20051;-73
2022/02/16 01:59:24;;;;;;;26.53;19.80;;;5.60;73.80;;;;;;5155827;27;20019;-72
2022/02/16 02:01:51;;;;;;;33.27;23.93;;;5.60;74.10;;;;;;5131870;27;20015;-72
2022/02/16 02:04:18;;;;;;;31.03;23.00;;;5.70;73.90;;;;;;5138398;27;20015;-73
2022/02/16 02:06:45;;;;;;;32.13;22.33;;;5.70;73.70;;;;;;5137121;27;20026;-73
2022/02/16 02:09:12;;;;;;;37.50;23.33;;;5.80;73.70;;;;;;5140108;27;20026;-72
2022/02/16 02:11:38;;;;;;;33.73;23.53;;;5.80;73.60;;;;;;5129919;27;20027;-74
2022/02/16 02:14:06;;;;;;;36.47;24.03;;;5.70;73.60;;;;;;5144131;27;20531;-72
2022/02/16 02:16:32;;;;;;;43.73;26.40;;;5.80;74.00;;;;;;5128301;27;20054;-72
2022/02/16 02:18:58;;;;;;;37.30;25.77;;;5.80;73.40;;;;;;5130698;27;20089;-73
2022/02/16 02:21:24;;;;;;;35.47;23.20;;;5.80;73.60;;;;;;5134936;27;20027;-72
2022/02/16 02:23:50;;;;;;;36.47;26.10;;;5.80;73.70;;;;;;5132019;27;20072;-72
2022/02/16 02:26:17;;;;;;;39.90;27.50;;;5.80;73.20;;;;;;5134966;27;20063;-72
2022/02/16 02:28:44;;;;;;;41.43;26.53;;;5.70;73.30;;;;;;5131164;27;20051;-72
2022/02/16 02:31:10;;;;;;;34.93;24.93;;;5.60;73.40;;;;;;5125499;27;20114;-73
2022/02/16 02:33:37;;;;;;;40.90;27.97;;;5.70;74.30;;;;;;5136211;27;20094;-72
2022/02/16 02:36:05;;;;;;;38.87;25.83;;;5.70;73.70;;;;;;5136320;27;20011;-72
2022/02/16 02:38:31;;;;;;;36.40;25.93;;;5.60;73.90;;;;;;5129958;27;20034;-73
2022/02/16 02:40:59;;;;;;;37.00;24.73;;;5.60;74.30;;;;;;5137090;27;20468;-72
2022/02/16 02:43:25;;;;;;;34.70;24.93;;;5.60;74.20;;;;;;5136887;27;20526;-73
2022/02/16 02:45:52;;;;;;;32.30;23.97;;;5.50;74.20;;;;;;5136384;27;20171;-73
2022/02/16 02:48:21;;;;;;;37.63;25.50;;;5.60;74.50;;;;;;5128526;27;20031;-72
2022/02/16 02:50:47;;;;;;;36.90;24.30;;;5.80;74.40;;;;;;5133160;27;20022;-72
2022/02/16 02:53:13;;;;;;;37.23;23.87;;;5.80;74.10;;;;;;5130342;27;20399;-72
2022/02/16 02:55:39;;;;;;;26.03;18.60;;;5.70;73.50;;;;;;5130076;27;20051;-72
2022/02/16 02:58:05;;;;;;;38.87;24.17;;;5.70;74.30;;;;;;5134691;27;20547;-72
2022/02/16 03:00:31;;;;;;;35.07;24.03;;;6.00;73.40;;;;;;5125942;27;20383;-72
2022/02/16 03:02:57;;;;;;;36.23;25.93;;;6.00;73.20;;;;;;5133061;27;20059;-72
2022/02/16 03:05:23;;;;;;;36.13;25.77;;;5.90;73.30;;;;;;5128994;27;20046;-73
2022/02/16 03:07:48;;;;;;;31.53;22.37;;;5.70;73.70;;;;;;5135677;27;20023;-73
2022/02/16 03:10:14;;;;;;;36.40;23.37;;;5.60;74.10;;;;;;5129671;27;20468;-72
2022/02/16 03:12:40;;;;;;;35.60;23.50;;;5.50;73.60;;;;;;5129379;27;20035;-72
2022/02/16 03:15:06;;;;;;;37.77;24.47;;;5.50;73.90;;;;;;5132707;27;20023;-72
2022/02/16 03:17:32;;;;;;;35.23;23.40;;;5.50;74.30;;;;;;5129604;27;20023;-72
2022/02/16 03:19:57;;;;;;;39.00;25.33;;;5.50;74.10;;;;;;5126431;27;20049;-72
2022/02/16 03:22:23;;;;;;;38.53;25.03;;;5.40;74.20;;;;;;5125984;27;20031;-72
2022/02/16 03:24:49;;;;;;;74.53;27.57;;;5.50;74.40;;;;;;5126137;27;20713;-72
2022/02/16 03:27:15;;;;;;;33.70;23.17;;;5.40;74.60;;;;;;5131090;27;20023;-72
2022/02/16 03:29:40;;;;;;;35.07;23.43;;;5.50;74.90;;;;;;5133214;27;20023;-73
2022/02/16 03:32:06;;;;;;;35.37;23.30;;;5.60;74.50;;;;;;5131173;27;20023;-71
2022/02/16 03:34:32;;;;;;;30.37;20.80;;;5.50;73.90;;;;;;5127094;27;20019;-72
2022/02/16 03:36:58;;;;;;;20.73;14.90;;;5.40;74.70;;;;;;5129202;27;20035;-72
2022/02/16 03:39:23;;;;;;;14.57;10.60;;;5.40;74.60;;;;;;5136354;27;20031;-73
2022/02/16 03:41:49;;;;;;;17.63;12.20;;;5.40;74.30;;;;;;5129552;27;20087;-72
2022/02/16 03:44:15;;;;;;;16.93;11.77;;;5.60;74.80;;;;;;5130624;27;20026;-72
2022/02/16 03:46:43;;;;;;;18.43;12.00;;;5.70;73.90;;;;;;5126286;27;20502;-72
2022/02/16 03:49:09;;;;;;;18.93;13.17;;;5.70;73.60;;;;;;5142881;27;20030;-72
2022/02/16 03:51:34;;;;;;;20.23;13.87;;;5.80;73.40;;;;;;5132037;27;20463;-72
2022/02/16 03:54:00;;;;;;;19.93;14.13;;;5.60;72.60;;;;;;5134299;27;20126;-72
2022/02/16 03:56:26;;;;;;;21.23;14.33;;;5.50;73.10;;;;;;5128006;27;20053;-73
2022/02/16 03:58:52;;;;;;;16.30;12.10;;;5.40;73.30;;;;;;5130477;27;20066;-72
2022/02/16 04:01:18;;;;;;;24.57;15.10;;;5.50;73.90;;;;;;5136987;27;20471;-72
2022/02/16 04:03:44;;;;;;;23.50;15.87;;;5.50;73.20;;;;;;5130894;27;20047;-72
2022/02/16 04:06:10;;;;;;;19.83;13.70;;;5.40;73.00;;;;;;5133281;27;20486;-72
2022/02/16 04:08:36;;;;;;;16.37;11.13;;;5.40;73.40;;;;;;5133317;27;20064;-72
2022/02/16 04:11:02;;;;;;;16.00;10.87;;;5.30;73.00;;;;;;5131107;27;20016;-72
2022/02/16 04:13:28;;;;;;;19.80;13.43;;;5.40;73.40;;;;;;5126378;27;20035;-72
2022/02/16 04:15:53;;;;;;;22.97;13.90;;;5.30;73.40;;;;;;5131546;27;20026;-73
2022/02/16 04:18:19;;;;;;;12.77;8.43;;;5.30;73.00;;;;;;5128201;27;20042;-72
2022/02/16 04:20:45;;;;;;;20.40;13.93;;;5.20;73.10;;;;;;5131665;27;20027;-72
2022/02/16 04:23:12;;;;;;;13.57;9.63;;;5.10;72.80;;;;;;5129271;27;20080;-72
2022/02/16 04:25:38;;;;;;;22.23;15.17;;;5.00;73.20;;;;;;5133912;27;20415;-72
2022/02/16 04:28:04;;;;;;;17.33;12.10;;;4.90;73.40;;;;;;5136513;27;20027;-71
2022/02/16 04:30:31;;;;;;;17.57;11.13;;;5.10;74.00;;;;;;5128981;27;20023;-72
2022/02/16 04:32:57;;;;;;;17.77;11.27;;;5.20;73.70;;;;;;5132723;27;20024;-72
2022/02/16 04:35:23;;;;;;;20.97;13.07;;;5.30;73.20;;;;;;5135201;27;20046;-72
2022/02/16 04:37:48;;;;;;;22.70;14.30;;;5.30;72.80;;;;;;5126480;28;20066;-72
2022/02/16 04:40:16;;;;;;;22.93;15.73;;;5.20;72.60;;;;;;5136440;27;20051;-72
2022/02/16 04:42:42;;;;;;;22.87;15.27;;;5.30;72.80;;;;;;5148499;27;20030;-72
2022/02/16 04:45:08;;;;;;;23.57;15.50;;;5.20;73.00;;;;;;5129676;27;20929;-71
2022/02/16 04:47:35;;;;;;;26.40;17.23;;;5.30;73.20;;;;;;5134795;27;20391;-73
2022/02/16 04:50:01;;;;;;;23.47;14.80;;;5.30;73.30;;;;;;5135242;27;20412;-72
2022/02/16 04:52:34;;;;;;;22.90;15.53;;;5.40;73.00;;;;;;5132057;27;20553;-73
2022/02/16 04:55:12;;;;;;;19.73;13.53;;;5.40;72.50;;;;;;5124307;27;20502;-72
2022/02/16 04:57:38;;;;;;;15.30;9.83;;;5.20;73.10;;;;;;5131380;27;20052;-72
2022/02/16 05:00:06;;;;;;;16.50;10.90;;;5.30;73.00;;;;;;5133721;27;20387;-72
2022/02/16 05:02:32;;;;;;;15.07;9.80;;;5.20;72.20;;;;;;5142840;27;20080;-72
2022/02/16 05:04:57;;;;;;;14.17;9.10;;;5.20;73.00;;;;;;5131735;28;20376;-72
2022/02/16 05:07:24;;;;;;;13.23;8.97;;;5.20;72.70;;;;;;5138632;27;20075;-74
2022/02/16 05:09:49;;;;;;;14.73;9.90;;;5.20;72.60;;;;;;5130801;27;20527;-72
2022/02/16 05:12:16;;;;;;;18.40;11.63;;;5.40;72.50;;;;;;5125024;28;20034;-72
2022/02/16 05:14:42;;;;;;;16.10;11.10;;;5.50;72.20;;;;;;5131467;27;20127;-72
2022/02/16 05:17:08;;;;;;;15.10;10.17;;;5.30;71.50;;;;;;5128302;28;20069;-72
2022/02/16 05:19:34;;;;;;;12.10;8.53;;;5.30;71.90;;;;;;5127195;28;20514;-73
2022/02/16 05:22:00;;;;;;;12.50;8.17;;;5.20;72.00;;;;;;5129924;28;20031;-72
2022/02/16 05:24:26;;;;;;;14.17;9.53;;;5.10;72.30;;;;;;5131994;27;20364;-72
2022/02/16 05:26:52;;;;;;;16.47;11.33;;;5.40;72.40;;;;;;5130925;28;20030;-72
2022/02/16 05:29:18;;;;;;;20.80;14.33;;;5.60;71.50;;;;;;5130881;27;20577;-72
2022/02/16 05:31:44;;;;;;;23.83;15.40;;;5.70;71.20;;;;;;5129979;28;20510;-72
2022/02/16 05:34:10;;;;;;;22.37;14.57;;;5.60;71.20;;;;;;5124360;28;20032;-72
2022/02/16 05:36:36;;;;;;;21.37;12.83;;;5.50;71.40;;;;;;5127660;27;20491;-72
2022/02/16 05:39:04;;;;;;;25.53;14.03;;;5.60;71.70;;;;;;5132275;27;20023;-72
2022/02/16 05:41:30;;;;;;;23.30;14.23;;;5.50;71.00;;;;;;5138562;27;20026;-72
2022/02/16 05:43:56;;;;;;;20.47;12.87;;;5.40;71.10;;;;;;5149058;27;20390;-72
2022/02/16 05:46:22;;;;;;;17.73;11.40;;;5.30;71.50;;;;;;5118338;27;20047;-72
2022/02/16 05:48:48;;;;;;;14.80;9.70;;;5.20;71.70;;;;;;5124019;28;20027;-72
2022/02/16 05:51:14;;;;;;;16.30;10.33;;;5.20;72.00;;;;;;5132911;27;20027;-73
2022/02/16 05:53:40;;;;;;;15.10;11.00;;;5.30;72.30;;;;;;5138049;27;20027;-72
2022/02/16 05:56:06;;;;;;;15.13;9.97;;;5.40;71.50;;;;;;5134285;27;20027;-72
2022/02/16 05:58:32;;;;;;;14.90;9.93;;;5.30;71.30;;;;;;5137585;27;20124;-72
2022/02/16 06:00:59;;;;;;;12.60;8.10;;;5.10;71.50;;;;;;5139936;27;20091;-72
2022/02/16 06:03:25;;;;;;;14.40;9.50;;;5.20;72.00;;;;;;5137469;27;20046;-72
2022/02/16 06:05:51;;;;;;;10.10;6.53;;;5.20;71.70;;;;;;5143649;27;20027;-74
2022/02/16 06:08:17;;;;;;;9.43;5.60;;;5.20;71.50;;;;;;5133773;27;20361;-72
2022/02/16 06:10:43;;;;;;;9.53;6.50;;;5.10;71.50;;;;;;5133622;27;20038;-72
2022/02/16 06:13:08;;;;;;;7.13;4.70;;;5.20;71.50;;;;;;5133177;27;20035;-73
2022/02/16 06:15:34;;;;;;;7.03;5.00;;;5.20;71.50;;;;;;5134043;27;20051;-72
2022/02/16 06:18:00;;;;;;;8.07;5.50;;;5.20;71.40;;;;;;5135031;27;20448;-72
2022/02/16 06:20:25;;;;;;;10.57;6.70;;;5.10;71.20;;;;;;5138972;27;20368;-73
2022/02/16 06:22:53;;;;;;;12.00;7.27;;;5.20;71.80;;;;;;5138171;27;20039;-73
2022/02/16 06:25:21;;;;;;;12.03;8.00;;;5.10;70.90;;;;;;5133239;27;20027;-72
2022/02/16 06:27:47;;;;;;;11.53;7.47;;;5.00;71.00;;;;;;5131221;27;20027;-72
2022/02/16 06:30:13;;;;;;;13.93;8.30;;;5.10;71.60;;;;;;5139187;27;20107;-72
2022/02/16 06:32:38;;;;;;;12.10;7.30;;;5.20;70.80;;;;;;5135088;27;20456;-72
2022/02/16 06:35:05;;;;;;;10.67;6.47;;;5.10;70.60;;;;;;5130931;27;20121;-72
2022/02/16 06:37:30;;;;;;;9.20;6.47;;;5.00;70.70;;;;;;5127068;27;20031;-73
2022/02/16 06:39:56;;;;;;;9.30;6.60;;;4.90;70.50;;;;;;5133753;27;20539;-72
2022/02/16 06:42:22;;;;;;;10.97;7.23;;;5.00;71.30;;;;;;5137098;27;20395;-72
2022/02/16 06:44:48;;;;;;;11.87;7.30;;;5.00;70.90;;;;;;5140443;27;20057;-73
2022/02/16 06:47:14;;;;;;;13.07;7.97;;;5.20;70.80;;;;;;5139187;27;20125;-72
2022/02/16 06:49:40;;;;;;;10.30;6.80;;;5.20;70.70;;;;;;5156322;27;20055;-72
2022/02/16 06:52:06;;;;;;;12.00;7.37;;;5.20;70.50;;;;;;5146768;27;20035;-73
2022/02/16 06:54:32;;;;;;;15.10;8.40;;;5.30;70.20;;;;;;5128030;27;20462;-72
2022/02/16 06:56:59;;;;;;;13.10;7.67;;;5.30;70.00;;;;;;5133344;27;20041;-73
2022/02/16 06:59:25;;;;;;;10.83;7.17;;;5.30;69.70;;;;;;5140573;27;20028;-72
2022/02/16 07:01:50;;;;;;;14.60;7.17;;;5.30;69.70;;;;;;5135124;27;20035;-72
2022/02/16 07:04:16;;;;;;;11.27;7.53;;;5.20;69.60;;;;;;5138977;27;20027;-72
2022/02/16 07:06:42;;;;;;;9.93;6.47;;;5.00;70.00;;;;;;5134998;27;20019;-72
2022/02/16 07:09:07;;;;;;;14.60;8.43;;;5.00;70.50;;;;;;5130292;27;20129;-72
2022/02/16 07:11:33;;;;;;;16.43;9.43;;;5.10;70.50;;;;;;5129619;27;20093;-72
2022/02/16 07:13:59;;;;;;;12.60;8.10;;;5.10;69.90;;;;;;5130117;27;20035;-72
2022/02/16 07:16:25;;;;;;;12.43;7.67;;;5.20;70.40;;;;;;5131170;27;20052;-72
2022/02/16 07:18:50;;;;;;;14.13;9.00;;;5.20;70.40;;;;;;5131382;27;20467;-73
2022/02/16 07:21:17;;;;;;;12.80;7.10;;;5.30;70.10;;;;;;5130127;27;20031;-73
2022/02/16 07:23:46;;;;;;;9.37;5.80;;;5.40;70.00;;;;;;5128268;27;20055;-72
2022/02/16 07:26:12;;;;;;;10.77;6.67;;;5.50;69.60;;;;;;5114337;27;20519;-72
2022/02/16 07:28:38;;;;;;;9.87;6.27;;;5.40;69.10;;;;;;5141246;27;20079;-72
2022/02/16 07:31:04;;;;;;;12.53;7.33;;;5.30;69.60;;;;;;5132574;27;20376;-72
2022/02/16 07:33:29;;;;;;;16.47;8.50;;;5.20;69.10;;;;;;5129927;27;21872;-72
2022/02/16 07:35:55;;;;;;;15.00;7.93;;;5.00;69.50;;;;;;5129748;27;20035;-72
2022/02/16 07:38:21;;;;;;;12.67;7.40;;;4.90;70.00;;;;;;5131259;27;20039;-72
2022/02/16 07:40:46;;;;;;;12.57;7.60;;;4.80;69.90;;;;;;5136166;27;20402;-72
2022/02/16 07:43:12;;;;;;;13.13;7.60;;;4.80;70.40;;;;;;5130711;27;20087;-72
2022/02/16 07:45:38;;;;;;;11.87;6.97;;;4.70;70.30;;;;;;5122301;27;20403;-72
2022/02/16 07:48:04;;;;;;;12.97;7.47;;;4.70;70.40;;;;;;5130525;27;20015;-72
2022/02/16 07:50:30;;;;;;;12.13;7.83;;;4.60;70.50;;;;;;5130465;27;20658;-72
2022/02/16 07:52:59;;;;;;;10.37;6.70;;;4.60;70.90;;;;;;5132049;27;20110;-73
2022/02/16 07:55:26;;;;;;;12.03;7.00;;;4.60;71.20;;;;;;5129365;27;20494;-73
2022/02/16 07:57:53;;;;;;;9.70;6.60;;;4.70;71.10;;;;;;5144185;27;20067;-72
2022/02/16 08:00:19;;;;;;;8.03;5.77;;;4.70;70.90;;;;;;5128812;27;20447;-72
2022/02/16 08:02:45;;;;;;;8.53;6.00;;;4.70;71.00;;;;;;5124980;27;20019;-72
2022/02/16 08:05:11;;;;;;;11.93;6.27;;;4.70;70.90;;;;;;5137795;27;20030;-73
2022/02/16 08:07:37;;;;;;;7.27;4.97;;;4.70;70.80;;;;;;5119436;27;20016;-73
2022/02/16 08:10:04;;;;;;;7.83;5.20;;;4.70;70.90;;;;;;5113837;27;20104;-72
2022/02/16 08:12:30;;;;;;;8.70;4.93;;;4.80;71.50;;;;;;5128140;27;20024;-73
2022/02/16 08:14:55;;;;;;;7.00;4.63;;;5.00;70.90;;;;;;5126818;27;20101;-72
2022/02/16 08:17:21;;;;;;;5.20;3.73;;;5.00;70.20;;;;;;5130226;27;20088;-72
2022/02/16 08:19:47;;;;;;;10.60;5.73;;;5.30;70.60;;;;;;5125420;27;20467;-72
2022/02/16 08:22:13;;;;;;;8.67;5.30;;;5.60;69.50;;;;;;5129898;27;20111;-73
2022/02/16 08:24:39;;;;;;;7.00;4.10;;;5.70;69.10;;;;;;5130650;27;20100;-72
2022/02/16 08:27:05;;;;;;;7.17;4.63;;;5.60;68.60;;;;;;5124887;27;20046;-72
2022/02/16 08:29:32;;;;;;;6.03;4.13;;;5.50;68.60;;;;;;5129930;27;20094;-73
2022/02/16 08:31:57;;;;;;;6.87;4.50;;;5.50;68.60;;;;;;5126965;27;20023;-72
2022/02/16 08:34:23;;;;;;;7.17;4.87;;;5.60;68.60;;;;;;5127651;27;20551;-73
2022/02/16 08:36:55;;;;;;;8.87;4.10;;;5.70;68.20;;;;;;5127370;27;20469;-72
2022/02/16 08:39:25;;;;;;;8.53;4.63;;;5.80;67.90;;;;;;5124264;27;20038;-72
2022/02/16 08:41:52;;;;;;;13.73;8.27;;;6.00;67.30;;;;;;5124684;27;20019;-72
2022/02/16 08:44:18;;;;;;;10.37;5.53;;;6.10;66.70;;;;;;5125961;27;20076;-72
2022/02/16 08:46:44;;;;;;;8.63;4.70;;;7.70;64.10;;;;;;5124158;28;20043;-72
2022/02/16 08:49:09;;;;;;;8.73;5.77;;;10.40;57.40;;;;;;5135264;27;20034;-72
2022/02/16 08:51:35;;;;;;;8.07;4.87;;;11.60;53.90;;;;;;5146131;27;20065;-73
2022/02/16 08:54:01;;;;;;;7.50;4.90;;;12.30;51.90;;;;;;5127985;28;20031;-73
2022/02/16 08:56:29;;;;;;;6.63;4.53;;;11.90;51.80;;;;;;5130671;28;20076;-72
2022/02/16 08:59:00;;;;;;;5.23;4.03;;;10.20;53.90;;;;;;5126484;27;20020;-72
2022/02/16 09:01:31;;;;;;;5.77;3.87;;;9.00;57.00;;;;;;5128479;28;20091;-72
2022/02/16 09:03:58;;;;;;;5.23;4.07;;;8.50;58.90;;;;;;5127511;27;20074;-72
2022/02/16 09:06:24;;;;;;;4.93;2.70;;;8.20;59.60;;;;;;5127325;28;20117;-72
2022/02/16 09:08:51;;;;;;;6.43;3.53;;;8.10;60.20;;;;;;5118087;27;20080;-72
2022/02/16 09:11:17;;;;;;;4.73;3.30;;;8.00;60.30;;;;;;5125485;28;20023;-72
2022/02/16 09:13:43;;;;;;;3.93;2.80;;;8.00;61.10;;;;;;5126749;28;20545;-73
2022/02/16 09:16:08;;;;;;;5.60;3.17;;;7.80;60.50;;;;;;5127695;27;20031;-72
2022/02/16 09:18:34;;;;;;;4.57;3.37;;;7.80;60.80;;;;;;5128266;28;20020;-73
2022/02/16 09:21:05;;;;;;;3.97;2.70;;;8.10;60.50;;;;;;5122314;28;20023;-72
2022/02/16 09:23:40;;;;;;;4.47;2.57;;;8.00;60.10;;;;;;5129267;28;20050;-72
2022/02/16 09:26:06;;;;;;;4.33;3.10;;;8.00;59.50;;;;;;5138939;27;20447;-72
2022/02/16 09:28:33;;;;;;;5.70;3.60;;;7.80;59.10;;;;;;5118378;27;20098;-73
2022/02/16 09:31:00;;;;;;;4.07;2.77;;;7.70;59.70;;;;;;5127769;27;20475;-72
2022/02/16 09:33:27;;;;;;;4.20;2.87;;;7.40;59.50;;;;;;5131155;27;20031;-72
2022/02/16 09:35:53;;;;;;;4.63;2.73;;;7.20;60.10;;;;;;5132944;27;20080;-73
2022/02/16 09:38:19;;;;;;;8.87;3.13;;;7.20;60.50;;;;;;5131036;27;20084;-72
2022/02/16 09:40:46;;;;;;;4.20;3.03;;;7.60;60.10;;;;;;5129485;27;20027;-72
2022/02/16 09:43:17;;;;;;;5.80;3.13;;;8.00;60.20;;;;;;5132135;27;20364;-72
2022/02/16 09:45:43;;;;;;;4.83;3.50;;;8.10;59.10;;;;;;5130759;27;20019;-72
2022/02/16 09:48:09;;;;;;;3.93;2.67;;;8.30;59.40;;;;;;5126897;27;20023;-72
2022/02/16 09:50:35;;;;;;;5.53;3.07;;;8.50;59.70;;;;;;5129012;27;20068;-73
2022/02/16 09:53:01;;;;;;;7.63;2.97;;;8.60;58.90;;;;;;5132098;27;20437;-72
2022/02/16 09:55:27;;;;;;;5.17;3.07;;;8.40;58.30;;;;;;5130825;27;20076;-73
2022/02/16 09:57:53;;;;;;;5.20;3.60;;;8.10;58.20;;;;;;5130235;27;20031;-72
2022/02/16 10:00:19;;;;;;;4.73;3.30;;;8.10;58.80;;;;;;5128744;27;20027;-72
2022/02/16 10:02:46;;;;;;;5.87;3.30;;;8.10;58.70;;;;;;5127126;27;20035;-72
2022/02/16 10:05:16;;;;;;;4.17;2.57;;;7.90;58.30;;;;;;5123801;27;20031;-72
2022/02/16 10:07:44;;;;;;;9.10;3.30;;;7.70;58.30;;;;;;5130369;27;20019;-73
2022/02/16 10:10:36;;;;;;;4.03;2.30;;;7.50;58.70;;;;;;5142727;27;20027;-72
2022/02/16 10:13:04;;;;;;;4.10;2.60;;;7.90;59.00;;;;;;5120652;27;20547;-73
2022/02/16 10:15:36;;;;;;;3.53;2.27;;;8.00;58.80;;;;;;5129090;27;20027;-72
2022/02/16 10:18:10;;;;;;;4.57;2.70;;;8.30;58.40;;;;;;5122284;27;20027;-72
2022/02/16 10:20:37;;;;;;;4.03;2.60;;;8.10;57.40;;;;;;5142627;27;20391;-73
2022/02/16 10:23:03;;;;;;;4.57;3.10;;;7.80;57.70;;;;;;5108378;27;20567;-74
2022/02/16 10:25:34;;;;;;;5.63;3.20;;;7.60;57.80;;;;;;5106636;27;20028;-72
2022/02/16 10:28:20;;;;;;;8.60;3.23;;;7.40;58.70;;;;;;5126384;27;20023;-72
2022/02/16 10:31:00;;;;;;;5.03;3.10;;;7.40;58.40;;;;;;5132592;27;20068;-73
2022/02/16 10:33:28;;;;;;;4.70;2.83;;;7.20;58.40;;;;;;5132137;27;20030;-72
2022/02/16 10:36:00;;;;;;;5.50;3.50;;;7.30;58.70;;;;;;5128076;27;20027;-72
2022/02/16 10:38:26;;;;;;;4.72;3.20;;;7.40;58.90;;;;;;5138620;27;20038;-72
2022/02/16 10:41:07;;;;;;;5.27;3.10;;;7.30;58.40;;;;;;5130744;27;20039;-73
2022/02/16 10:43:38;;;;;;;4.03;2.50;;;7.20;58.70;;;;;;5140009;27;20027;-73
2022/02/16 10:46:22;;;;;;;4.57;2.17;;;7.30;58.60;;;;;;5140063;27;20039;-72
2022/02/16 10:48:49;;;;;;;3.13;2.03;;;7.40;58.00;;;;;;5130338;27;20068;-72
2022/02/16 10:51:19;;;;;;;4.97;2.90;;;7.50;58.10;;;;;;5129070;27;20028;-72
2022/02/16 10:53:45;;;;;;;3.13;2.10;;;7.60;58.00;;;;;;5129097;27;20027;-72
2022/02/16 10:56:11;;;;;;;3.30;2.40;;;7.80;57.80;;;;;;5132725;27;20051;-72
2022/02/16 10:58:38;;;;;;;2.80;1.80;;;7.70;57.20;;;;;;5132460;27;20544;-73
2022/02/16 11:01:04;;;;;;;4.27;2.03;;;7.70;57.50;;;;;;5131694;27;20046;-72
2022/02/16 11:03:31;;;;;;;4.67;2.20;;;7.80;57.30;;;;;;5132410;27;20023;-73
2022/02/16 11:06:00;;;;;;;2.67;1.83;;;8.00;57.10;;;;;;5133168;27;20487;-72
2022/02/16 11:08:29;;;;;;;3.70;1.83;;;8.10;57.20;;;;;;5146951;27;20058;-72
2022/02/16 11:10:55;;;;;;;2.73;1.80;;;8.30;56.30;;;;;;5134350;27;20022;-72
2022/02/16 11:13:25;;;;;;;2.33;1.30;;;8.30;56.00;;;;;;5123422;27;20027;-72
2022/02/16 11:15:52;;;;;;;2.53;1.57;;;8.20;56.30;;;;;;5149304;27;20042;-72
2022/02/16 11:18:23;;;;;;;3.00;1.90;;;8.00;55.40;;;;;;5134133;27;20061;-72
2022/02/16 11:21:11;;;;;;;5.83;1.53;;;7.80;55.70;;;;;;5127227;27;20120;-73
2022/02/16 11:23:42;;;;;;;2.40;1.70;;;7.80;56.60;;;;;;5147588;27;20031;-73
2022/02/16 11:26:40;;;;;;;4.60;1.47;;;8.00;56.40;;;;;;5130957;27;20031;-72
2022/02/16 11:29:29;;;;;;;2.20;1.60;;;7.90;55.60;;;;;;5113816;27;20403;-74
2022/02/16 11:32:01;;;;;;;3.17;1.90;;;7.70;55.70;;;;;;5114457;27;20043;-73
2022/02/16 11:34:27;;;;;;;3.43;2.07;;;7.50;56.20;;;;;;5132054;27;20031;-73
2022/02/16 11:37:02;;;;;;;2.83;1.70;;;7.40;56.10;;;;;;5132675;27;20035;-72
2022/02/16 11:39:49;;;;;;;3.10;1.93;;;7.30;56.60;;;;;;5131185;27;20047;-72
2022/02/16 11:42:47;;;;;;;3.10;2.20;;;7.30;56.60;;;;;;5132929;27;20062;-72
2022/02/16 11:45:14;;;;;;;2.87;2.00;;;7.20;56.90;;;;;;5123312;27;20050;-73
2022/02/16 11:47:40;;;;;;;3.33;1.83;;;7.20;57.20;;;;;;5131898;27;20073;-73
2022/02/16 11:50:15;;;;;;;3.50;2.10;;;7.20;57.10;;;;;;5130987;27;20027;-73
2022/02/16 11:52:49;;;;;;;2.77;1.97;;;7.20;57.10;;;;;;5127561;27;20030;-72
2022/02/16 11:55:31;;;;;;;2.97;1.77;;;7.20;57.20;;;;;;5131122;27;20476;-73
2022/02/16 11:58:01;;;;;;;5.77;2.10;;;7.20;57.40;;;;;;5127214;27;20051;-72
2022/02/16 12:00:41;;;;;;;3.00;1.67;;;7.30;57.50;;;;;;5130608;27;20035;-72
2022/02/16 12:03:07;;;;;;;5.63;2.30;;;7.40;57.30;;;;;;5131913;27;20027;-72
2022/02/16 12:05:40;;;;;;;4.17;1.93;;;7.60;57.20;;;;;;5133183;27;20038;-73
2022/02/16 12:08:13;;;;;;;4.97;1.63;;;7.50;57.00;;;;;;5132144;27;20080;-73
2022/02/16 12:10:42;;;;;;;;;;;7.50;56.90;;;;;;5132993;27;20076;-72
2022/02/16 12:13:08;;;;;;;4.50;2.20;;;7.50;57.10;;;;;;5130234;27;19914;-73
2022/02/16 12:15:35;;;;;;;5.90;1.70;;;7.60;57.60;;;;;;5132686;27;20109;-72
2022/02/16 12:18:01;;;;;;;5.80;2.20;;;7.80;57.20;;;;;;5130766;27;20056;-73
2022/02/16 12:20:27;;;;;;;6.63;2.47;;;7.90;57.40;;;;;;5130274;27;20072;-72
2022/02/16 12:22:59;;;;;;;3.27;2.10;;;7.90;57.30;;;;;;5131517;27;20035;-73
2022/02/16 12:25:25;;;;;;;6.45;2.70;;;8.00;57.90;;;;;;5132888;27;20729;-72
2022/02/16 12:27:51;;;;;;;5.17;2.40;;;8.00;57.50;;;;;;5130118;27;20121;-72
2022/02/16 12:30:16;;;;;;;5.70;2.43;;;8.00;57.20;;;;;;5124267;27;20045;-72
2022/02/16 12:32:46;;;;;;;4.30;2.63;;;8.00;57.10;;;;;;5131380;27;20066;-73
2022/02/16 12:35:11;;;;;;;4.73;2.37;;;8.00;57.20;;;;;;5127987;27;20106;-73
2022/02/16 12:37:38;;;;;;;8.57;2.40;;;8.00;57.20;;;;;;5116350;27;20270;-73
2022/02/16 12:40:10;;;;;;;5.47;2.67;;;8.00;57.30;;;;;;5125090;27;20028;-73
2022/02/16 12:42:41;;;;;;;3.17;2.38;;;8.00;57.20;;;;;;5144523;27;20019;-73
2022/02/16 12:45:09;;;;;;;3.47;2.20;;;8.00;57.20;;;;;;5129615;27;20564;-72
2022/02/16 12:47:35;;;;;;;4.03;1.73;;;8.00;57.10;;;;;;5128332;27;20036;-72